Wilmington, OH

6:14 AM EST on March 02, 2015 (GMT -0500)
Springfield-Beckley Municipal | Change Station
CLOSE
Current Station
Airport
Location: Springfield,
Elevation: 1050 ft
Nearby Weather Stations
Active Advisory: Special Statement Active Notice: Record Report, Local Storm Report

Elev 1050 ft 39.84 °N, 83.84 °W | Updated 18 minutes ago

Mostly Cloudy
Mostly Cloudy
18 °F
Feels Like 4 °F
N
14
Wind Variable Wind from NW
Gusts 20 mph

Today
High -- | Low -- °F
--% Chance of Precip.
Yesterday
High -- | Low -- °F
Precip. -- in
7:07 AM 6:28 PM
Waxing Gibbous, 91% visible
Pressure 30.47 in
Visibility 6.0 miles
Clouds Overcast 1200 ft
Windchill 4 °F
Dew Point 15 °F
Humidity 88%
Rainfall 0.00 in
Snow Depth Not available.
UV 0 out of 12
Pollen .70 out of 12
Air Quality Not available.
Flu Activity Not available.
METAR KSGH 021056Z AUTO 31012G17KT 6SM BR OVC012 M08/M09 A3043 RMK AO2 T10771094 SLP318

More Conditions Fewer Conditions

Pressure 30.47 in
Visibility 6.0 miles
Clouds Overcast 1200 ft
Windchill 4 °F
Dew Point 15 °F
Humidity 88%
Rainfall 0.00 in
Snow Depth Not available.
UV 0 out of 12
Pollen .70 out of 12
Air Quality Not available.
Flu Activity Not available.
METAR KSGH 021056Z AUTO 31012G17KT 6SM BR OVC012 M08/M09 A3043 RMK AO2 T10771094 SLP318

More Conditions Fewer Conditions

10-Day Weather Forecast

Almanac

Astronomy

Mar. 02, 2015 Rise Set
Actual Time
Civil Twilight
Nautical Twilight
Astronomical Twilight
Moon
Length of Visible Light
Length of Day
Tomorrow will be .
, % of the Moon is Illuminated

Today's Extremes

State Highs State Lows

Community

WunderPhotos

Upload Photos

1,801,756 photos uploaded!

WunderBlogs® & News

Nearby

Air Quality

  Air Quality AQ Index Pollutant
Not available.

Snow Depth

Station Depth Elevation

Earthquake Activity

City Distance Mag. Time & Date
Minimum magnitude displayed is 2.5.

Coastal Water Temperatures

Place Temperature

Nearby Weather Stations

Special Statement
Statement as of 3:56 AM EST on March 02, 2015

... Icy roads likely this morning...

With temperatures below freezing any moisture on roadways and
sidewalks will freeze leading to icy conditions on untreated
surfaces. Please use extra caution if traveling this morning and
allow plenty of room between yourself and the car in front of you.